Time;durP1;ratioP1;P1;durP2;ratioP2;P2;SDS_P1;SDS_P2;PMS_P1;PMS_P2;Temp;Humidity;BMP_temperature;BMP_pressure;BME280_temperature;BME280_humidity;BME280_pressure;Samples;Min_cycle;Max_cycle;Signal;HPM_P1;HPM_P2
2022/04/25 00:00:14;;;;;;;1.58;0.70;;;9.80;99.90;;;;;;5012306;28;20089;-74
2022/04/25 00:02:40;;;;;;;2.28;0.90;;;9.90;99.90;;;;;;5004519;28;20113;-74
2022/04/25 00:05:07;;;;;;;1.67;0.85;;;9.90;99.90;;;;;;5009007;28;20084;-74
2022/04/25 00:07:32;;;;;;;1.50;0.75;;;9.80;99.90;;;;;;5005870;28;21416;-74
2022/04/25 00:09:58;;;;;;;3.47;1.40;;;9.80;99.90;;;;;;5007370;28;20480;-74
2022/04/25 00:12:24;;;;;;;2.08;1.15;;;9.90;99.90;;;;;;5010013;28;20083;-74
2022/04/25 00:14:50;;;;;;;2.35;0.93;;;9.90;99.90;;;;;;5017808;28;20034;-74
2022/04/25 00:17:16;;;;;;;1.92;0.90;;;9.80;99.90;;;;;;5008227;28;20033;-74
2022/04/25 00:19:41;;;;;;;1.35;0.75;;;9.80;99.90;;;;;;5009702;28;20515;-74
2022/04/25 00:22:07;;;;;;;3.42;0.80;;;9.80;99.90;;;;;;5002387;28;20034;-74
2022/04/25 00:24:33;;;;;;;2.35;1.05;;;9.80;99.90;;;;;;5003922;28;20088;-74
2022/04/25 00:26:58;;;;;;;0.95;0.50;;;9.80;99.90;;;;;;5011420;28;20050;-74
2022/04/25 00:29:24;;;;;;;1.38;0.70;;;9.80;99.90;;;;;;5006548;28;20030;-74
2022/04/25 00:31:50;;;;;;;1.48;0.70;;;9.80;99.90;;;;;;5011123;28;20033;-74
2022/04/25 00:34:16;;;;;;;2.00;0.85;;;9.80;99.90;;;;;;5000850;28;20036;-75
2022/04/25 00:36:41;;;;;;;2.63;0.98;;;9.70;99.90;;;;;;4999634;28;20030;-74
2022/04/25 00:39:07;;;;;;;1.58;0.68;;;9.80;99.90;;;;;;5008507;28;20041;-74
2022/04/25 00:41:33;;;;;;;1.52;0.70;;;9.80;99.90;;;;;;5008524;28;20105;-74
2022/04/25 00:43:59;;;;;;;1.92;0.90;;;9.80;99.90;;;;;;5006043;28;20504;-74
2022/04/25 00:46:26;;;;;;;1.73;0.73;;;9.80;99.90;;;;;;5010959;28;20038;-74
2022/04/25 00:48:53;;;;;;;2.05;1.00;;;9.80;99.90;;;;;;5004152;28;20027;-74
2022/04/25 00:51:19;;;;;;;1.98;0.93;;;9.70;99.90;;;;;;5007920;28;20072;-74
2022/04/25 00:53:46;;;;;;;3.92;0.85;;;9.80;99.90;;;;;;5007507;28;20071;-74
2022/04/25 00:56:17;;;;;;;2.30;1.20;;;9.70;99.90;;;;;;5006719;28;20033;-74
2022/04/25 00:58:45;;;;;;;2.10;1.10;;;9.80;99.90;;;;;;5008886;28;20041;-74
2022/04/25 01:01:11;;;;;;;2.90;1.05;;;9.80;99.90;;;;;;5006991;28;20115;-74
2022/04/25 01:03:37;;;;;;;2.83;1.00;;;9.90;99.90;;;;;;5005410;28;20244;-74
2022/04/25 01:06:03;;;;;;;2.05;1.00;;;9.90;99.90;;;;;;5000469;28;20449;-74
2022/04/25 01:08:29;;;;;;;3.72;1.08;;;9.90;99.90;;;;;;5007265;28;20145;-74
2022/04/25 01:10:55;;;;;;;1.95;0.85;;;9.80;99.90;;;;;;5006036;28;20079;-74
2022/04/25 01:13:21;;;;;;;1.70;0.70;;;9.80;99.90;;;;;;5007879;28;20022;-74
2022/04/25 01:15:47;;;;;;;2.70;0.93;;;9.90;99.90;;;;;;4993548;28;20033;-74
2022/04/25 01:18:12;;;;;;;2.35;0.85;;;9.90;99.90;;;;;;5009483;28;20030;-74
2022/04/25 01:20:38;;;;;;;3.20;0.77;;;9.90;99.90;;;;;;4996932;28;20030;-74
2022/04/25 01:27:15;;;;;;;1.90;0.90;;;9.90;99.90;;;;;;5009748;28;20044;-74
2022/04/25 01:28:37;;;;;;;2.50;0.70;;;9.90;99.90;;;;;;5007222;28;20117;-74
2022/04/25 01:31:03;;;;;;;1.67;0.75;;;9.90;99.90;;;;;;5007107;28;20526;-74
2022/04/25 01:33:29;;;;;;;2.45;0.77;;;9.80;99.90;;;;;;5002142;28;20034;-75
2022/04/25 01:35:54;;;;;;;2.78;0.70;;;9.70;99.90;;;;;;5001273;28;20034;-74
2022/04/25 01:38:20;;;;;;;2.60;0.85;;;9.70;99.90;;;;;;5006977;28;20416;-74
2022/04/25 01:40:46;;;;;;;1.67;0.82;;;9.60;99.90;;;;;;5010295;28;20381;-74
2022/04/25 01:43:11;;;;;;;2.92;1.10;;;9.70;99.90;;;;;;5006174;28;20109;-74
2022/04/25 01:45:39;;;;;;;1.77;0.90;;;9.70;99.90;;;;;;5006937;28;20030;-74
2022/04/25 01:48:05;;;;;;;3.67;1.00;;;9.70;99.90;;;;;;5013510;28;20102;-74
2022/04/25 01:50:31;;;;;;;1.35;0.73;;;9.70;99.90;;;;;;5006323;28;20116;-74
2022/04/25 01:52:57;;;;;;;2.10;1.10;;;9.80;99.90;;;;;;5011877;28;20480;-74
2022/04/25 01:55:23;;;;;;;3.05;1.30;;;9.80;99.90;;;;;;5007479;28;20033;-74
2022/04/25 01:57:48;;;;;;;3.47;0.98;;;9.80;99.90;;;;;;5012848;28;20035;-74
2022/04/25 02:00:14;;;;;;;1.92;0.88;;;9.80;99.90;;;;;;5011775;28;20104;-74
2022/04/25 02:02:40;;;;;;;1.40;0.90;;;9.80;99.90;;;;;;5004060;28;20062;-74
2022/04/25 02:05:06;;;;;;;2.30;0.80;;;9.80;99.90;;;;;;5006103;28;20045;-74
2022/04/25 02:07:32;;;;;;;2.40;1.02;;;9.80;99.90;;;;;;5004869;28;20489;-74
2022/04/25 02:09:58;;;;;;;2.33;1.00;;;9.60;99.90;;;;;;5014195;28;20037;-74
2022/04/25 02:12:24;;;;;;;2.13;0.73;;;9.60;99.90;;;;;;5002801;28;20477;-74
2022/04/25 02:14:50;;;;;;;1.33;0.60;;;9.60;99.90;;;;;;5005568;28;20037;-74
2022/04/25 02:17:15;;;;;;;1.50;0.90;;;9.50;99.90;;;;;;5006494;28;20093;-74
2022/04/25 02:19:44;;;;;;;1.70;0.80;;;9.30;99.90;;;;;;5012150;28;20072;-74
2022/04/25 02:22:10;;;;;;;2.58;1.20;;;9.30;99.90;;;;;;5009710;28;20173;-74
2022/04/25 02:24:36;;;;;;;2.20;0.88;;;9.40;99.90;;;;;;5009713;28;20108;-74
2022/04/25 02:27:04;;;;;;;2.63;0.80;;;9.40;99.90;;;;;;5011747;28;20030;-74
2022/04/25 02:29:40;;;;;;;4.75;0.98;;;9.40;99.90;;;;;;5012914;28;20037;-75
2022/04/25 02:32:07;;;;;;;2.53;1.15;;;9.50;99.90;;;;;;5007335;28;20183;-74
2022/04/25 02:34:33;;;;;;;2.53;0.85;;;9.50;99.90;;;;;;5002904;28;20022;-74
2022/04/25 02:36:58;;;;;;;4.03;1.05;;;9.50;99.90;;;;;;5007681;28;20167;-74
2022/04/25 02:39:24;;;;;;;1.90;1.00;;;9.50;99.90;;;;;;5008030;28;20396;-74
2022/04/25 02:41:51;;;;;;;2.60;1.30;;;9.60;99.90;;;;;;5003207;28;20050;-75
2022/04/25 02:44:17;;;;;;;1.83;0.93;;;9.70;99.90;;;;;;5006624;28;20443;-74
2022/04/25 02:46:43;;;;;;;1.88;0.90;;;9.70;99.90;;;;;;5013261;28;20033;-74
2022/04/25 02:49:09;;;;;;;2.28;0.93;;;9.60;99.90;;;;;;5008069;28;20041;-74
2022/04/25 02:51:35;;;;;;;1.70;1.00;;;9.70;99.90;;;;;;5010920;28;20468;-74
2022/04/25 02:54:00;;;;;;;3.00;1.30;;;9.60;99.90;;;;;;5006584;28;20060;-74
2022/04/25 02:56:26;;;;;;;2.67;0.90;;;9.60;99.90;;;;;;5003979;28;20030;-74
2022/04/25 02:58:52;;;;;;;1.73;0.80;;;9.50;99.90;;;;;;5007671;28;20026;-74
2022/04/25 03:01:17;;;;;;;1.70;0.90;;;9.50;99.90;;;;;;5010986;28;20109;-73
2022/04/25 03:03:43;;;;;;;3.25;1.42;;;9.40;99.90;;;;;;5005736;28;20109;-74
2022/04/25 03:06:10;;;;;;;2.72;1.13;;;9.50;99.90;;;;;;5006536;28;20496;-74
2022/04/25 03:08:37;;;;;;;3.58;1.23;;;9.60;99.90;;;;;;5005862;28;20041;-74
2022/04/25 03:11:05;;;;;;;2.42;0.93;;;9.60;99.90;;;;;;5008086;28;20096;-74
2022/04/25 03:13:31;;;;;;;2.70;1.00;;;9.60;99.90;;;;;;5002028;28;20068;-74
2022/04/25 03:15:57;;;;;;;1.77;1.13;;;9.70;99.90;;;;;;5003901;28;20418;-74
2022/04/25 03:18:23;;;;;;;2.55;1.20;;;9.70;99.90;;;;;;4996768;28;20041;-73
2022/04/25 03:20:50;;;;;;;3.80;1.48;;;9.70;99.90;;;;;;5004900;28;20037;-74
2022/04/25 03:23:20;;;;;;;2.83;1.40;;;9.80;99.90;;;;;;5001519;28;20029;-74
2022/04/25 03:25:47;;;;;;;3.03;1.25;;;9.80;99.90;;;;;;5005401;28;20038;-74
2022/04/25 03:28:13;;;;;;;3.70;1.55;;;9.90;99.90;;;;;;5006395;28;20026;-74
2022/04/25 03:30:39;;;;;;;3.22;1.70;;;9.90;99.90;;;;;;5002503;28;20053;-74
2022/04/25 03:33:05;;;;;;;3.42;1.73;;;9.90;99.90;;;;;;4999741;28;20074;-74
2022/04/25 03:35:32;;;;;;;2.72;1.35;;;10.00;99.90;;;;;;5003094;28;20030;-73
2022/04/25 03:37:59;;;;;;;4.22;2.08;;;10.00;99.90;;;;;;5008071;28;20033;-72
2022/04/25 03:40:24;;;;;;;2.17;1.17;;;10.00;99.90;;;;;;5002945;28;20034;-73
2022/04/25 03:42:50;;;;;;;2.28;1.15;;;10.00;99.90;;;;;;5004997;28;20100;-73
2022/04/25 03:45:18;;;;;;;2.03;0.98;;;10.00;99.90;;;;;;4998812;28;20048;-73
2022/04/25 03:47:45;;;;;;;2.30;1.10;;;9.90;99.90;;;;;;5004978;28;20045;-73
2022/04/25 03:50:12;;;;;;;2.15;1.02;;;9.70;99.90;;;;;;5005407;28;20041;-73
2022/04/25 03:52:40;;;;;;;1.88;1.15;;;9.70;99.90;;;;;;5004715;28;20029;-73
2022/04/25 03:57:53;;;;;;;1.90;0.90;;;9.80;99.90;;;;;;5002818;28;20045;-73
2022/04/25 04:00:19;;;;;;;3.03;1.30;;;9.80;99.90;;;;;;4995350;28;20070;-73
2022/04/25 04:02:44;;;;;;;3.08;1.35;;;9.80;99.90;;;;;;5001951;28;20033;-73
2022/04/25 04:05:11;;;;;;;2.42;1.10;;;9.80;99.90;;;;;;4998646;28;20441;-73
2022/04/25 04:07:37;;;;;;;2.33;1.15;;;9.80;99.90;;;;;;5003622;28;20045;-73
2022/04/25 04:10:03;;;;;;;2.15;1.20;;;9.90;99.90;;;;;;4999520;28;20375;-73
2022/04/25 04:12:33;;;;;;;2.75;1.20;;;9.80;99.90;;;;;;4998101;28;20030;-73
2022/04/25 04:15:02;;;;;;;3.65;1.30;;;9.60;99.90;;;;;;4989141;28;20475;-73
2022/04/25 04:17:28;;;;;;;3.70;1.55;;;9.50;99.90;;;;;;4983841;28;20026;-73
2022/04/25 04:19:54;;;;;;;5.22;1.77;;;9.40;99.90;;;;;;4984625;28;20630;-73
2022/04/25 04:22:26;;;;;;;2.40;1.15;;;9.40;99.90;;;;;;4981073;28;20030;-72
2022/04/25 04:24:57;;;;;;;3.65;1.50;;;9.50;99.90;;;;;;4997762;28;20085;-73
2022/04/25 04:27:23;;;;;;;3.63;1.80;;;9.50;99.90;;;;;;4999775;28;20061;-73
2022/04/25 04:29:49;;;;;;;2.92;1.88;;;9.60;99.90;;;;;;4999801;28;20064;-73
2022/04/25 04:32:15;;;;;;;2.88;1.65;;;9.60;99.90;;;;;;4994645;28;20109;-73
2022/04/25 04:34:40;;;;;;;5.38;1.17;;;9.60;99.90;;;;;;4981702;28;20117;-73
2022/04/25 04:37:07;;;;;;;2.50;1.20;;;9.60;99.90;;;;;;4984472;28;20159;-73
2022/04/25 04:39:32;;;;;;;2.33;1.10;;;9.60;99.90;;;;;;4996147;28;20077;-73
2022/04/25 04:41:58;;;;;;;2.13;1.30;;;9.60;99.90;;;;;;4990930;28;20034;-72
2022/04/25 04:44:24;;;;;;;2.75;1.23;;;9.60;99.90;;;;;;4999253;28;20468;-73
2022/04/25 04:46:50;;;;;;;2.83;1.55;;;9.70;99.90;;;;;;5004075;28;20428;-73
2022/04/25 04:49:16;;;;;;;5.93;1.20;;;9.60;99.90;;;;;;5002135;28;20515;-73
2022/04/25 04:51:42;;;;;;;5.28;1.30;;;9.50;99.90;;;;;;4999468;28;20030;-72
2022/04/25 04:54:08;;;;;;;6.40;1.63;;;9.60;99.90;;;;;;5002935;28;20198;-73
2022/04/25 04:56:34;;;;;;;5.40;1.80;;;9.50;99.90;;;;;;4998488;28;20088;-73
2022/04/25 04:59:01;;;;;;;2.92;1.35;;;9.50;99.90;;;;;;5001503;28;20042;-73
2022/04/25 05:01:27;;;;;;;3.10;1.52;;;9.50;99.90;;;;;;5003200;28;20591;-73
2022/04/25 05:03:55;;;;;;;3.40;1.92;;;9.60;99.90;;;;;;5005826;28;20044;-73
2022/04/25 05:06:21;;;;;;;3.92;1.60;;;9.60;99.90;;;;;;5003251;28;20057;-73
2022/04/25 05:08:47;;;;;;;2.92;1.52;;;9.60;99.90;;;;;;5005584;28;20030;-73
2022/04/25 05:11:12;;;;;;;6.65;2.42;;;9.50;99.90;;;;;;5003250;28;20061;-73
2022/04/25 05:13:38;;;;;;;5.63;2.22;;;9.40;99.90;;;;;;4992510;28;20131;-73
2022/04/25 05:16:04;;;;;;;5.88;2.42;;;9.60;99.90;;;;;;5005502;28;20100;-72
2022/04/25 05:18:33;;;;;;;3.80;1.90;;;9.60;99.90;;;;;;4993952;28;20030;-73
2022/04/25 05:21:03;;;;;;;3.78;2.10;;;9.70;99.90;;;;;;4996185;28;20070;-73
2022/04/25 05:23:29;;;;;;;3.75;1.80;;;9.70;99.90;;;;;;5004182;28;20133;-73
2022/04/25 05:25:55;;;;;;;4.93;1.65;;;9.80;99.90;;;;;;5008863;28;20030;-72
2022/04/25 05:28:22;;;;;;;3.53;1.40;;;9.80;99.90;;;;;;5002539;28;20516;-73
2022/04/25 05:30:48;;;;;;;3.45;1.63;;;9.80;99.90;;;;;;4999730;28;20041;-73
2022/04/25 05:33:17;;;;;;;2.63;1.45;;;9.80;99.90;;;;;;5002349;28;20149;-73
2022/04/25 05:35:43;;;;;;;3.72;1.75;;;9.80;99.90;;;;;;5008572;28;20022;-73
2022/04/25 05:38:10;;;;;;;4.07;1.55;;;9.80;99.90;;;;;;5004850;28;20116;-73
2022/04/25 05:40:36;;;;;;;3.47;1.85;;;9.80;99.90;;;;;;5001879;28;20618;-73
2022/04/25 05:43:03;;;;;;;5.53;2.67;;;9.90;99.90;;;;;;5008795;28;20030;-73
2022/04/25 05:45:29;;;;;;;4.55;2.15;;;10.00;99.90;;;;;;5008715;28;20048;-73
2022/04/25 05:47:57;;;;;;;4.28;2.80;;;10.00;99.90;;;;;;5000703;28;20034;-73
2022/04/25 05:53:12;;;;;;;5.88;1.77;;;10.00;99.90;;;;;;5004349;28;20537;-73
2022/04/25 05:55:38;;;;;;;2.65;1.65;;;9.80;99.90;;;;;;5003444;28;20041;-73
2022/04/25 05:58:06;;;;;;;3.67;1.67;;;9.90;99.90;;;;;;5002807;28;20103;-73
2022/04/25 06:00:33;;;;;;;3.67;1.52;;;9.90;99.90;;;;;;5004311;28;20031;-73
2022/04/25 06:03:00;;;;;;;3.33;1.50;;;9.80;99.90;;;;;;5005414;28;20392;-72
2022/04/25 06:05:26;;;;;;;3.92;1.73;;;9.80;99.90;;;;;;5002502;28;20042;-73
2022/04/25 06:07:52;;;;;;;3.03;1.48;;;9.80;99.90;;;;;;5005119;28;20064;-73
2022/04/25 06:10:19;;;;;;;4.07;1.63;;;9.90;99.90;;;;;;4999412;28;20389;-73
2022/04/25 06:12:48;;;;;;;3.35;1.75;;;9.90;99.90;;;;;;5009055;28;20146;-73
2022/04/25 06:15:16;;;;;;;2.58;1.50;;;10.10;99.90;;;;;;5004260;28;20109;-73
2022/04/25 06:17:42;;;;;;;2.63;1.45;;;10.30;99.90;;;;;;5000842;28;20034;-73
2022/04/25 06:20:09;;;;;;;3.15;1.67;;;10.70;99.90;;;;;;5008108;28;20030;-72
2022/04/25 06:22:36;;;;;;;3.25;1.55;;;10.90;99.90;;;;;;5002414;28;20041;-73
2022/04/25 06:25:06;;;;;;;4.72;1.55;;;10.90;99.90;;;;;;5001310;28;20125;-74
2022/04/25 06:27:32;;;;;;;3.80;1.60;;;10.90;99.90;;;;;;5002106;28;20489;-72
2022/04/25 06:29:58;;;;;;;4.05;1.63;;;10.90;99.90;;;;;;5006998;28;20100;-73
2022/04/25 06:32:24;;;;;;;3.88;1.60;;;10.90;99.90;;;;;;4995777;28;20900;-72
2022/04/25 06:34:51;;;;;;;3.67;1.30;;;10.90;99.90;;;;;;4997653;28;20549;-72
2022/04/25 06:37:17;;;;;;;6.70;1.33;;;11.00;99.90;;;;;;5008369;28;20084;-73
2022/04/25 06:39:42;;;;;;;2.38;0.90;;;11.10;99.90;;;;;;4989723;28;20030;-73
2022/04/25 06:42:09;;;;;;;3.88;1.58;;;11.20;99.90;;;;;;5000636;28;20034;-73
2022/04/25 06:44:36;;;;;;;3.90;1.88;;;11.30;99.90;;;;;;5000510;28;20038;-73
2022/04/25 06:47:01;;;;;;;2.03;0.93;;;11.50;99.90;;;;;;5002587;28;21267;-73
2022/04/25 06:49:27;;;;;;;3.13;1.40;;;11.80;99.90;;;;;;4998195;28;20077;-73
2022/04/25 06:51:59;;;;;;;3.15;1.30;;;11.70;99.90;;;;;;4997423;28;20030;-73
2022/04/25 06:54:26;;;;;;;2.53;1.30;;;12.00;99.90;;;;;;5004383;28;20042;-73
2022/04/25 06:56:53;;;;;;;2.85;1.15;;;12.50;99.90;;;;;;5000465;28;20086;-73
2022/04/25 06:59:20;;;;;;;2.42;1.13;;;13.20;99.90;;;;;;5003435;28;20069;-73
2022/04/25 07:01:46;;;;;;;2.95;1.40;;;14.70;99.50;;;;;;4984821;28;20057;-73
2022/04/25 07:04:12;;;;;;;2.63;1.00;;;16.40;97.30;;;;;;4998656;28;20140;-73
2022/04/25 07:06:39;;;;;;;3.20;1.27;;;17.20;94.10;;;;;;4996220;28;20152;-74
2022/04/25 07:09:05;;;;;;;2.58;1.10;;;17.20;93.80;;;;;;4999765;28;20045;-73
2022/04/25 07:11:32;;;;;;;1.40;0.75;;;18.30;92.10;;;;;;5004412;28;20022;-73
2022/04/25 07:13:58;;;;;;;3.42;1.00;;;19.00;90.50;;;;;;4997350;28;20056;-73
2022/04/25 07:16:26;;;;;;;4.30;1.23;;;18.60;90.80;;;;;;5003902;28;20042;-73
2022/04/25 07:18:52;;;;;;;1.60;0.70;;;19.10;90.10;;;;;;5000748;28;20503;-73
2022/04/25 07:29:30;;;;;;;1.95;0.70;;;19.80;87.20;;;;;;4999069;28;20049;-73
2022/04/25 07:31:56;;;;;;;3.20;1.60;;;19.50;87.60;;;;;;4997394;28;20037;-73
2022/04/25 07:34:22;;;;;;;2.25;0.93;;;19.60;85.80;;;;;;4995109;28;20065;-73
2022/04/25 07:36:51;;;;;;;2.33;1.10;;;19.90;86.40;;;;;;5000015;28;20054;-73
2022/04/25 07:39:21;;;;;;;3.72;1.25;;;20.40;86.00;;;;;;5002931;28;20030;-73
2022/04/25 07:41:48;;;;;;;2.33;1.00;;;17.90;90.00;;;;;;5001713;28;20040;-73
2022/04/25 07:44:15;;;;;;;4.70;1.15;;;15.90;92.50;;;;;;5004233;28;20129;-73
2022/04/25 07:46:41;;;;;;;3.80;1.20;;;14.90;94.00;;;;;;4996919;28;20382;-73
2022/04/25 07:49:11;;;;;;;2.33;1.08;;;14.00;95.30;;;;;;5001474;28;20030;-73
2022/04/25 07:51:40;;;;;;;2.92;1.35;;;13.50;96.10;;;;;;5000162;28;20026;-73
2022/04/25 07:54:06;;;;;;;2.53;1.05;;;13.00;96.50;;;;;;5002544;28;20072;-73
2022/04/25 07:56:32;;;;;;;2.35;1.10;;;12.60;97.70;;;;;;4992534;28;20022;-73
2022/04/25 07:59:01;;;;;;;4.40;1.48;;;12.80;98.20;;;;;;4995879;28;20022;-75
2022/04/25 08:01:28;;;;;;;3.20;1.13;;;13.10;98.30;;;;;;4991097;28;20431;-73
2022/04/25 08:03:54;;;;;;;2.40;0.90;;;13.20;98.50;;;;;;4993780;28;20452;-75
2022/04/25 08:06:23;;;;;;;2.25;1.20;;;13.30;98.00;;;;;;4998325;28;20109;-76
2022/04/25 08:08:53;;;;;;;3.35;1.38;;;13.30;97.70;;;;;;4996385;28;20076;-75
2022/04/25 08:11:20;;;;;;;4.28;1.60;;;13.50;98.10;;;;;;4994475;28;20033;-76
2022/04/25 08:19:15;;;;;;;;;;;13.40;97.50;;;;;;4987319;28;20061;-75
2022/04/25 08:21:42;;;;;;;2.60;1.02;;;13.50;97.90;;;;;;4993438;28;19921;-73
2022/04/25 08:24:08;;;;;;;3.22;1.38;;;13.60;98.60;;;;;;4998023;28;20034;-73
2022/04/25 08:26:34;;;;;;;3.35;1.52;;;13.70;98.20;;;;;;4992327;28;20867;-73
2022/04/25 08:29:00;;;;;;;2.90;1.15;;;14.10;98.30;;;;;;5000435;28;20037;-73
2022/04/25 08:31:29;;;;;;;2.42;1.20;;;16.80;95.70;;;;;;4991580;28;20032;-74
2022/04/25 08:33:59;;;;;;;3.33;1.00;;;17.80;93.00;;;;;;4980463;28;20106;-73
2022/04/25 08:36:24;;;;;;;2.17;1.15;;;18.40;91.40;;;;;;4985632;28;20029;-74
2022/04/25 08:38:51;;;;;;;7.95;1.50;;;19.20;90.60;;;;;;4970311;28;20473;-73
2022/04/25 08:41:21;;;;;;;3.55;1.50;;;19.30;90.20;;;;;;4974894;28;20042;-73
2022/04/25 08:43:52;;;;;;;6.55;1.45;;;19.30;90.40;;;;;;4997131;28;20042;-73
2022/04/25 08:46:21;;;;;;;3.92;1.52;;;19.90;89.40;;;;;;4986367;28;20084;-73
2022/04/25 08:48:47;;;;;;;2.78;1.42;;;18.30;91.10;;;;;;4983354;28;20112;-73
2022/04/25 08:51:15;;;;;;;4.03;1.65;;;18.80;91.10;;;;;;4972557;28;20720;-73
2022/04/25 08:53:44;;;;;;;2.92;1.02;;;19.60;90.50;;;;;;4987073;28;20537;-73
2022/04/25 08:56:10;;;;;;;3.33;1.10;;;19.30;90.90;;;;;;4987796;28;20100;-73
2022/04/25 08:58:40;;;;;;;3.05;1.95;;;18.40;90.30;;;;;;4993369;28;20089;-73
2022/04/25 09:01:09;;;;;;;3.33;1.10;;;17.80;90.60;;;;;;4975931;28;20041;-73
2022/04/25 09:03:35;;;;;;;2.33;0.90;;;16.60;91.10;;;;;;4973870;28;20453;-72
2022/04/25 09:06:00;;;;;;;2.05;0.93;;;16.30;91.50;;;;;;4973167;28;20034;-71
2022/04/25 09:08:26;;;;;;;2.35;1.27;;;15.90;92.60;;;;;;4980203;28;20030;-74
2022/04/25 09:12:09;;;;;;;2.33;1.00;;;16.10;92.50;;;;;;4994791;28;20034;-71
2022/04/25 09:13:37;;;;;;;3.13;1.17;;;16.00;93.20;;;;;;4987670;28;20145;-71
2022/04/25 09:16:05;;;;;;;3.70;1.20;;;15.80;93.50;;;;;;4984715;28;20536;-74
2022/04/25 09:18:31;;;;;;;4.18;1.20;;;15.50;93.80;;;;;;4982856;28;20029;-71
2022/04/25 09:20:58;;;;;;;2.38;0.95;;;15.60;93.50;;;;;;4988662;28;20030;-71
2022/04/25 09:23:24;;;;;;;2.17;0.93;;;16.00;93.30;;;;;;4987974;28;20045;-72
2022/04/25 09:26:08;;;;;;;2.58;1.23;;;16.10;92.80;;;;;;4994672;28;20034;-72
2022/04/25 09:28:51;;;;;;;2.65;1.00;;;16.50;92.30;;;;;;4991893;28;20042;-72
2022/04/25 09:31:19;;;;;;;2.33;0.93;;;16.10;92.40;;;;;;4998388;28;20038;-74
2022/04/25 09:33:45;;;;;;;4.20;1.08;;;16.00;92.30;;;;;;4979295;28;20034;-75
2022/04/25 09:36:11;;;;;;;2.20;1.02;;;16.10;92.80;;;;;;4989307;28;20377;-72
2022/04/25 09:38:40;;;;;;;2.58;0.60;;;16.50;92.60;;;;;;4990041;28;20037;-72
2022/04/25 09:41:09;;;;;;;1.90;0.70;;;16.60;92.00;;;;;;5002041;28;20048;-72
2022/04/25 09:43:37;;;;;;;2.45;0.88;;;16.60;91.20;;;;;;5000154;28;20034;-72
2022/04/25 09:46:09;;;;;;;2.40;1.38;;;16.80;91.90;;;;;;4993879;28;20045;-72
2022/04/25 09:48:37;;;;;;;1.98;0.70;;;17.00;90.70;;;;;;4982485;28;20029;-72
2022/04/25 09:51:16;;;;;;;1.55;0.73;;;17.20;89.40;;;;;;4974512;28;20026;-73
2022/04/25 09:53:45;;;;;;;1.85;0.82;;;17.00;90.80;;;;;;4982786;28;20032;-72
2022/04/25 09:56:31;;;;;;;1.67;0.85;;;17.40;90.30;;;;;;4997514;28;20057;-72
2022/04/25 09:59:11;;;;;;;2.05;0.98;;;17.60;87.20;;;;;;4998205;28;20065;-72
2022/04/25 10:01:39;;;;;;;3.63;0.50;;;17.50;87.60;;;;;;4998733;28;20091;-72
2022/04/25 10:04:06;;;;;;;2.03;0.47;;;17.90;89.20;;;;;;4995234;28;20524;-72
2022/04/25 10:06:33;;;;;;;4.05;0.80;;;17.90;85.80;;;;;;4996658;28;20436;-72
2022/04/25 10:09:02;;;;;;;1.05;0.60;;;18.10;86.30;;;;;;4996841;28;20548;-72
2022/04/25 10:11:33;;;;;;;1.45;0.47;;;18.40;87.30;;;;;;5006080;28;20029;-72
2022/04/25 10:13:59;;;;;;;2.08;0.60;;;18.20;89.00;;;;;;5004656;28;20091;-72
2022/04/25 10:16:25;;;;;;;1.30;0.70;;;17.90;90.20;;;;;;5001915;28;20030;-72
2022/04/25 10:18:51;;;;;;;1.50;0.50;;;17.60;88.80;;;;;;5004673;28;20084;-72
2022/04/25 10:21:17;;;;;;;2.65;0.90;;;17.50;89.60;;;;;;5003978;28;20033;-72
2022/04/25 10:23:46;;;;;;;2.20;0.60;;;17.30;89.60;;;;;;5000221;28;20034;-73
2022/04/25 10:26:12;;;;;;;3.00;0.77;;;17.80;90.50;;;;;;4998460;28;20064;-72
2022/04/25 10:28:54;;;;;;;2.88;0.70;;;18.10;89.80;;;;;;5003221;28;20066;-72
2022/04/25 10:31:44;;;;;;;0.93;0.52;;;18.40;89.40;;;;;;5004789;28;20056;-72
2022/04/25 10:34:14;;;;;;;1.95;1.08;;;18.70;90.80;;;;;;5002163;28;20053;-72
2022/04/25 10:36:39;;;;;;;4.30;0.90;;;18.90;90.00;;;;;;5000511;28;20037;-72
2022/04/25 10:39:18;;;;;;;1.83;0.90;;;19.00;90.00;;;;;;5005380;28;20108;-72
2022/04/25 10:44:48;;;;;;;3.05;0.85;;;18.90;89.90;;;;;;5000524;28;20717;-72
2022/04/25 10:47:25;;;;;;;2.42;1.10;;;18.40;90.00;;;;;;5004654;28;20054;-72
2022/04/25 10:49:53;;;;;;;2.00;1.08;;;18.00;88.30;;;;;;5003441;28;20191;-72
2022/04/25 10:52:37;;;;;;;2.03;1.10;;;17.90;88.90;;;;;;5004675;28;20148;-72
2022/04/25 10:55:21;;;;;;;1.57;0.97;;;17.90;90.60;;;;;;4989970;28;20065;-72
2022/04/25 10:58:02;;;;;;;;;;;18.00;90.10;;;;;;4995605;28;20288;-72
2022/04/25 11:00:40;;;;;;;3.83;1.05;;;17.80;90.40;;;;;;5000781;28;19960;-72
2022/04/25 11:03:08;;;;;;;6.95;0.90;;;17.90;90.20;;;;;;4995706;28;20049;-72
2022/04/25 11:05:39;;;;;;;2.35;1.20;;;18.00;90.00;;;;;;4996145;28;20512;-72
2022/04/25 11:08:19;;;;;;;2.70;1.05;;;17.90;89.40;;;;;;5001005;28;20060;-72
2022/04/25 11:11:03;;;;;;;2.78;1.23;;;17.90;90.50;;;;;;4996139;28;20030;-72
2022/04/25 11:13:30;;;;;;;3.33;1.20;;;18.00;89.50;;;;;;5004486;28;20041;-72
2022/04/25 11:15:58;;;;;;;2.10;1.00;;;18.10;90.00;;;;;;5004001;28;20034;-72
2022/04/25 11:18:33;;;;;;;2.55;1.00;;;18.40;90.20;;;;;;5004055;28;20149;-72
2022/04/25 11:21:04;;;;;;;2.53;1.00;;;18.40;90.10;;;;;;5003092;28;20034;-72
2022/04/25 11:23:31;;;;;;;4.40;1.30;;;18.50;90.30;;;;;;4995112;28;20072;-72
2022/04/25 11:26:01;;;;;;;3.30;1.40;;;18.70;88.90;;;;;;5000550;28;20138;-72
2022/04/25 11:28:28;;;;;;;3.40;1.17;;;19.00;89.80;;;;;;4997835;28;20061;-72
2022/04/25 11:31:12;;;;;;;1.90;0.80;;;18.60;88.70;;;;;;5000282;28;20070;-72
2022/04/25 11:33:48;;;;;;;3.20;1.13;;;18.10;90.00;;;;;;4998037;28;20045;-72
2022/04/25 11:36:14;;;;;;;3.58;0.98;;;18.10;88.10;;;;;;5000211;28;20061;-72
2022/04/25 11:41:30;;;;;;;1.85;1.13;;;18.80;89.90;;;;;;5002572;28;20058;-72
2022/04/25 11:43:57;;;;;;;2.05;0.93;;;18.80;89.20;;;;;;4994183;28;20125;-72
2022/04/25 11:46:25;;;;;;;1.85;0.90;;;18.70;89.10;;;;;;4996890;28;20116;-72
2022/04/25 11:48:52;;;;;;;1.20;0.75;;;18.80;89.40;;;;;;5002635;28;20081;-72
2022/04/25 11:51:31;;;;;;;1.45;0.90;;;19.10;90.00;;;;;;4996946;28;20404;-72
2022/04/25 11:54:04;;;;;;;2.13;0.90;;;19.00;87.90;;;;;;4996313;28;20050;-72
2022/04/25 11:56:31;;;;;;;2.03;0.80;;;18.80;89.00;;;;;;4996461;28;20041;-72
2022/04/25 11:58:57;;;;;;;1.60;0.80;;;18.70;87.90;;;;;;4994478;28;20030;-72
2022/04/25 12:01:42;;;;;;;3.83;1.00;;;18.40;88.70;;;;;;4991667;28;20041;-72
2022/04/25 12:04:27;;;;;;;2.15;0.98;;;18.50;88.30;;;;;;4998362;28;20115;-72
2022/04/25 12:07:00;;;;;;;1.67;0.82;;;18.50;88.00;;;;;;4990117;28;20051;-73
2022/04/25 12:18:13;;;;;;;1.77;0.68;;;18.40;87.90;;;;;;5005813;28;20104;-72
2022/04/25 12:20:40;;;;;;;2.55;0.70;;;18.60;89.20;;;;;;4998530;28;20041;-72
2022/04/25 12:23:07;;;;;;;2.15;0.80;;;18.70;87.00;;;;;;4998806;28;20029;-72
2022/04/25 12:25:40;;;;;;;3.50;1.35;;;18.50;87.60;;;;;;4998084;28;20149;-72
2022/04/25 12:28:18;;;;;;;1.52;0.57;;;18.50;86.40;;;;;;5006006;28;20083;-72
2022/04/25 12:30:51;;;;;;;3.28;1.00;;;18.50;87.50;;;;;;4998743;28;20026;-72
2022/04/25 12:33:19;;;;;;;2.17;1.23;;;18.60;87.10;;;;;;5004122;28;20054;-72
2022/04/25 12:35:47;;;;;;;3.40;1.20;;;18.80;86.70;;;;;;4994247;28;20030;-72
2022/04/25 12:38:52;;;;;;;1.58;0.77;;;19.30;85.70;;;;;;5004558;28;20101;-72
2022/04/25 12:41:21;;;;;;;1.80;0.80;;;19.40;87.50;;;;;;5008898;28;20050;-72
2022/04/25 12:43:48;;;;;;;2.42;1.13;;;19.40;85.40;;;;;;5005913;28;20282;-72
2022/04/25 12:46:17;;;;;;;1.20;0.80;;;19.50;86.70;;;;;;5000741;28;20034;-72
2022/04/25 12:48:59;;;;;;;2.22;0.85;;;19.20;86.40;;;;;;5000721;28;20408;-72
2022/04/25 12:51:30;;;;;;;1.90;1.17;;;19.10;86.00;;;;;;5000061;28;20029;-72
2022/04/25 12:53:56;;;;;;;2.38;1.25;;;19.60;87.40;;;;;;4993070;28;20038;-72
2022/04/25 12:56:23;;;;;;;1.75;0.95;;;19.70;86.60;;;;;;5005559;28;20041;-72
2022/04/25 12:58:49;;;;;;;1.90;0.85;;;19.70;86.50;;;;;;4999296;28;20053;-73
2022/04/25 13:01:26;;;;;;;2.75;0.90;;;19.90;86.00;;;;;;5001493;28;20030;-72
2022/04/25 13:04:19;;;;;;;3.40;1.25;;;19.90;86.90;;;;;;5002559;28;20168;-73
2022/04/25 13:06:45;;;;;;;5.38;1.38;;;20.00;86.60;;;;;;5002821;28;20058;-72
2022/04/25 13:09:11;;;;;;;3.60;1.20;;;20.20;85.90;;;;;;4996711;28;20065;-72
2022/04/25 13:11:38;;;;;;;5.13;1.48;;;19.90;85.20;;;;;;5005201;28;20427;-72
2022/04/25 13:14:05;;;;;;;3.05;1.10;;;19.80;85.60;;;;;;5002033;28;20124;-72
2022/04/25 13:16:30;;;;;;;3.40;1.13;;;19.70;86.60;;;;;;5005816;28;20041;-72
2022/04/25 13:18:57;;;;;;;4.43;1.20;;;19.80;85.90;;;;;;4996221;28;20035;-72
2022/04/25 13:21:24;;;;;;;1.20;0.60;;;19.90;86.70;;;;;;5006315;28;20443;-72
2022/04/25 13:23:50;;;;;;;1.95;0.75;;;19.90;87.50;;;;;;4993220;28;20524;-73
2022/04/25 13:26:17;;;;;;;2.47;1.00;;;20.10;85.60;;;;;;4999765;28;20026;-72
2022/04/25 13:28:43;;;;;;;2.55;0.80;;;20.10;85.80;;;;;;5005646;28;20468;-72
2022/04/25 13:31:09;;;;;;;2.65;1.10;;;19.90;85.70;;;;;;4996861;28;20022;-72
2022/04/25 13:33:35;;;;;;;2.15;1.10;;;19.80;85.70;;;;;;4997510;28;20034;-72